createdAt,value
2019-06-15T00:00:41.759Z,2.40
2019-06-15T00:01:41.741Z,2.50
2019-06-15T00:02:41.727Z,2.50
2019-06-15T00:03:41.712Z,2.30
2019-06-15T00:04:41.690Z,2.60
2019-06-15T00:05:41.709Z,2.60
2019-06-15T00:06:41.655Z,2.60
2019-06-15T00:07:41.642Z,2.20
2019-06-15T00:08:41.661Z,2.60
2019-06-15T00:09:41.604Z,2.30
2019-06-15T00:10:41.588Z,2.20
2019-06-15T00:11:41.571Z,2.80
2019-06-15T00:12:42.308Z,2.40
2019-06-15T00:13:41.537Z,2.20
2019-06-15T00:14:41.523Z,2.00
2019-06-15T00:15:41.503Z,2.50
2019-06-15T00:16:41.485Z,2.40
2019-06-15T00:17:41.470Z,2.20
2019-06-15T00:18:41.499Z,2.00
2019-06-15T00:19:41.436Z,2.50
2019-06-15T00:20:41.419Z,2.30
2019-06-15T00:21:41.401Z,2.60
2019-06-15T00:22:41.387Z,2.60
2019-06-15T00:23:42.162Z,3.00
2019-06-15T00:24:41.351Z,2.80
2019-06-15T00:25:41.339Z,3.10
2019-06-15T00:26:41.317Z,3.10
2019-06-15T00:27:41.302Z,3.30
2019-06-15T00:28:41.285Z,3.00
2019-06-15T00:29:41.266Z,3.20
2019-06-15T00:30:41.251Z,3.10
2019-06-15T00:31:41.234Z,3.20
2019-06-15T00:32:41.217Z,3.50
2019-06-15T00:33:41.199Z,3.10
2019-06-15T00:34:41.184Z,2.80
2019-06-15T00:35:41.166Z,2.70
2019-06-15T00:36:41.151Z,3.30
2019-06-15T00:37:41.131Z,3.40
2019-06-15T00:38:41.116Z,3.40
2019-06-15T00:39:41.102Z,3.00
2019-06-15T00:40:41.081Z,2.90
2019-06-15T00:41:41.063Z,3.10
2019-06-15T00:42:41.046Z,2.90
2019-06-15T00:43:41.030Z,3.00
2019-06-15T00:44:41.013Z,3.20
2019-06-15T00:45:40.995Z,3.60
2019-06-15T00:46:40.978Z,2.60
2019-06-15T00:47:40.962Z,3.20
2019-06-15T00:48:40.953Z,3.10
2019-06-15T00:49:40.927Z,4.60
2019-06-15T00:50:40.910Z,3.80
2019-06-15T00:51:40.893Z,3.60
2019-06-15T00:52:40.876Z,3.20
2019-06-15T00:53:40.858Z,2.40
2019-06-15T00:54:49.939Z,2.80
2019-06-15T00:55:40.823Z,2.90
2019-06-15T00:56:40.807Z,3.00
2019-06-15T00:57:40.790Z,3.30
2019-06-15T00:58:40.801Z,3.30
2019-06-15T00:59:40.755Z,2.70
2019-06-15T01:00:40.737Z,3.00
2019-06-15T01:01:40.720Z,3.90
2019-06-15T01:02:40.704Z,3.10
2019-06-15T01:03:40.685Z,3.10
2019-06-15T01:04:40.712Z,3.30
2019-06-15T01:05:40.649Z,3.10
2019-06-15T01:06:40.632Z,3.20
2019-06-15T01:07:40.615Z,2.80
2019-06-15T01:08:40.597Z,3.30
2019-06-15T01:09:40.579Z,3.30
2019-06-15T01:10:40.563Z,3.00
2019-06-15T01:11:40.545Z,3.70
2019-06-15T01:12:40.527Z,3.30
2019-06-15T01:13:40.507Z,3.60
2019-06-15T01:14:40.492Z,3.80
2019-06-15T01:15:40.473Z,3.60
2019-06-15T01:16:40.455Z,4.20
2019-06-15T01:17:40.437Z,3.80
2019-06-15T01:18:40.419Z,3.90
2019-06-15T01:19:40.410Z,3.80
2019-06-15T01:20:40.384Z,3.80
2019-06-15T01:21:40.372Z,4.30
2019-06-15T01:22:40.347Z,3.40
2019-06-15T01:23:40.329Z,3.70
2019-06-15T01:24:40.310Z,3.40
2019-06-15T01:25:40.291Z,2.90
2019-06-15T01:26:40.274Z,2.90
2019-06-15T01:27:40.257Z,3.50
2019-06-15T01:28:40.238Z,3.60
2019-06-15T01:29:40.220Z,2.90
2019-06-15T01:30:40.202Z,3.20
2019-06-15T01:31:40.184Z,3.10
2019-06-15T01:32:40.165Z,2.90
2019-06-15T01:33:40.147Z,2.90
2019-06-15T01:34:40.130Z,3.10
2019-06-15T01:35:40.112Z,3.40
2019-06-15T01:36:40.093Z,2.80
2019-06-15T01:37:40.074Z,3.00
2019-06-15T01:38:40.058Z,3.50
2019-06-15T01:39:40.038Z,3.00
2019-06-15T01:40:40.021Z,2.80
2019-06-15T01:41:40.034Z,2.90
2019-06-15T01:42:39.987Z,2.80
2019-06-15T01:43:39.969Z,3.00
2019-06-15T01:44:39.947Z,2.90
2019-06-15T01:45:39.929Z,3.00
2019-06-15T01:46:39.912Z,3.40
2019-06-15T01:47:39.893Z,3.00
2019-06-15T01:48:39.877Z,2.90
2019-06-15T01:49:39.863Z,2.40
2019-06-15T01:50:39.839Z,2.60
2019-06-15T01:51:39.821Z,2.80
2019-06-15T01:52:39.803Z,2.60
2019-06-15T01:53:39.785Z,2.90
2019-06-15T01:54:39.766Z,2.70
2019-06-15T01:55:39.749Z,2.80
2019-06-15T01:56:40.482Z,2.90
2019-06-15T01:57:39.711Z,2.90
2019-06-15T01:58:39.694Z,3.70
2019-06-15T01:59:39.676Z,3.00
2019-06-15T02:00:39.692Z,3.10
2019-06-15T02:01:39.640Z,3.20
2019-06-15T02:02:39.630Z,2.80
2019-06-15T02:03:39.603Z,3.30
2019-06-15T02:04:39.585Z,3.20
2019-06-15T02:05:39.568Z,3.10
2019-06-15T02:06:39.548Z,3.40
2019-06-15T02:07:39.531Z,3.50
2019-06-15T02:08:39.512Z,3.20
2019-06-15T02:09:39.497Z,3.60
2019-06-15T02:10:39.475Z,3.50
2019-06-15T02:11:39.457Z,4.10
2019-06-15T02:12:39.441Z,3.70
2019-06-15T02:13:39.422Z,3.90
2019-06-15T02:14:39.408Z,4.20
2019-06-15T02:15:39.385Z,4.20
2019-06-15T02:16:39.375Z,4.40
2019-06-15T02:17:39.346Z,5.00
2019-06-15T02:18:39.328Z,4.80
2019-06-15T02:19:39.318Z,5.20
2019-06-15T02:20:39.291Z,5.40
2019-06-15T02:21:39.278Z,5.80
2019-06-15T02:22:39.253Z,5.70
2019-06-15T02:23:39.234Z,6.50
2019-06-15T02:24:39.217Z,7.10
2019-06-15T02:25:39.196Z,7.80
2019-06-15T02:26:39.179Z,8.60
2019-06-15T02:27:39.161Z,8.20
2019-06-15T02:28:39.142Z,9.80
2019-06-15T02:29:39.182Z,8.50
2019-06-15T02:30:39.103Z,8.50
2019-06-15T02:31:39.087Z,9.50
2019-06-15T02:32:39.067Z,10.30
2019-06-15T02:33:39.047Z,10.90
2019-06-15T02:34:39.032Z,11.50
2019-06-15T02:35:39.009Z,12.30
2019-06-15T02:36:38.998Z,12.30
2019-06-15T02:37:39.019Z,13.70
2019-06-15T02:38:38.953Z,13.70
2019-06-15T02:39:38.931Z,15.60
2019-06-15T02:40:38.911Z,14.80
2019-06-15T02:41:38.892Z,14.70
2019-06-15T02:42:38.885Z,15.90
2019-06-15T02:43:38.852Z,15.20
2019-06-15T02:44:38.836Z,15.00
2019-06-15T02:45:38.812Z,15.50
2019-06-15T02:46:38.796Z,15.10
2019-06-15T02:47:38.774Z,13.70
2019-06-15T02:48:38.766Z,15.20
2019-06-15T02:49:38.733Z,13.90
2019-06-15T02:50:38.719Z,14.00
2019-06-15T02:51:38.695Z,13.70
2019-06-15T02:52:38.674Z,13.10
2019-06-15T02:53:38.655Z,13.80
2019-06-15T02:54:38.636Z,12.50
2019-06-15T02:55:50.165Z,12.70
2019-06-15T02:56:38.597Z,12.40
2019-06-15T02:57:38.576Z,12.30
2019-06-15T02:58:38.570Z,11.00
2019-06-15T02:59:38.543Z,11.20
2019-06-15T03:00:38.517Z,10.70
2019-06-15T03:01:38.497Z,10.80
2019-06-15T03:02:38.484Z,11.70
2019-06-15T03:03:38.460Z,11.10
2019-06-15T03:04:38.438Z,10.80
2019-06-15T03:05:39.921Z,10.60
2019-06-15T03:06:38.399Z,10.30
2019-06-15T03:07:38.380Z,9.80
2019-06-15T03:08:38.361Z,9.50
2019-06-15T03:09:38.339Z,10.20
2019-06-15T03:10:38.320Z,9.50
2019-06-15T03:11:39.051Z,9.20
2019-06-15T03:12:38.281Z,9.20
2019-06-15T03:13:38.260Z,9.30
2019-06-15T03:14:38.244Z,9.30
2019-06-15T03:15:38.222Z,9.00
2019-06-15T03:16:38.202Z,8.90
2019-06-15T03:17:38.206Z,9.60
2019-06-15T03:18:38.163Z,9.00
2019-06-15T03:19:38.142Z,7.90
2019-06-15T03:20:38.126Z,8.00
2019-06-15T03:21:38.149Z,8.50
2019-06-15T03:22:38.085Z,8.50
2019-06-15T03:23:38.069Z,8.80
2019-06-15T03:24:38.049Z,8.40
2019-06-15T03:25:38.027Z,8.30
2019-06-15T03:26:38.005Z,8.60
2019-06-15T03:27:37.985Z,8.40
2019-06-15T03:28:37.974Z,8.20
2019-06-15T03:29:37.945Z,8.50
2019-06-15T03:30:37.931Z,8.60
2019-06-15T03:31:37.908Z,8.50
2019-06-15T03:32:37.892Z,8.50
2019-06-15T03:33:37.871Z,9.20
2019-06-15T03:34:37.848Z,8.20
2019-06-15T03:35:37.828Z,8.30
2019-06-15T03:36:37.808Z,8.20
2019-06-15T03:37:37.790Z,8.20
2019-06-15T03:38:37.769Z,7.90
2019-06-15T03:39:37.750Z,7.80
2019-06-15T03:40:37.730Z,8.20
2019-06-15T03:41:37.709Z,8.00
2019-06-15T03:42:37.690Z,7.70
2019-06-15T03:43:37.721Z,7.40
2019-06-15T03:44:37.725Z,7.90
2019-06-15T03:45:37.631Z,7.50
2019-06-15T03:46:37.611Z,7.50
2019-06-15T03:47:37.594Z,7.60
2019-06-15T03:48:37.571Z,7.30
2019-06-15T03:49:37.551Z,7.80
2019-06-15T03:50:37.532Z,7.90
2019-06-15T03:51:37.513Z,7.10
2019-06-15T03:52:37.494Z,7.10
2019-06-15T03:53:37.471Z,7.20
2019-06-15T03:54:37.453Z,7.30
2019-06-15T03:55:40.407Z,7.00
2019-06-15T03:56:37.414Z,7.30
2019-06-15T03:57:37.394Z,7.00
2019-06-15T03:58:37.379Z,7.40
2019-06-15T03:59:37.360Z,6.90
2019-06-15T04:00:37.335Z,7.10
2019-06-15T04:01:37.372Z,6.90
2019-06-15T04:02:37.299Z,6.70
2019-06-15T04:03:37.280Z,6.50
2019-06-15T04:04:37.256Z,7.30
2019-06-15T04:05:37.238Z,6.90
2019-06-15T04:06:37.216Z,6.80
2019-06-15T04:07:37.195Z,6.70
2019-06-15T04:08:37.177Z,7.50
2019-06-15T04:09:37.160Z,7.70
2019-06-15T04:10:37.142Z,7.30
2019-06-15T04:11:37.116Z,7.40
2019-06-15T04:12:37.097Z,6.40
2019-06-15T04:13:37.076Z,7.20
2019-06-15T04:14:37.057Z,7.00
2019-06-15T04:15:37.045Z,7.10
2019-06-15T04:16:37.023Z,6.90
2019-06-15T04:17:36.998Z,5.90
2019-06-15T04:18:36.980Z,7.10
2019-06-15T04:19:36.987Z,5.60
2019-06-15T04:20:36.940Z,6.20
2019-06-15T04:21:36.919Z,5.70
2019-06-15T04:22:36.904Z,5.60
2019-06-15T04:23:36.881Z,6.40
2019-06-15T04:24:36.861Z,6.50
2019-06-15T04:25:36.840Z,6.80
2019-06-15T04:26:36.822Z,6.40
2019-06-15T04:27:36.803Z,6.10
2019-06-15T04:28:36.781Z,6.30
2019-06-15T04:29:36.762Z,5.80
2019-06-15T04:30:36.753Z,5.50
2019-06-15T04:31:39.845Z,6.30
2019-06-15T04:32:36.709Z,5.60
2019-06-15T04:33:36.684Z,6.00
2019-06-15T04:34:36.666Z,5.20
2019-06-15T04:35:36.646Z,5.70
2019-06-15T04:36:36.627Z,5.50
2019-06-15T04:37:36.608Z,5.50
2019-06-15T04:38:36.588Z,5.70
2019-06-15T04:39:36.567Z,5.90
2019-06-15T04:40:36.550Z,6.40
2019-06-15T04:41:36.529Z,5.90
2019-06-15T04:42:36.518Z,6.50
2019-06-15T04:43:36.491Z,6.30
2019-06-15T04:44:36.472Z,6.10
2019-06-15T04:45:36.452Z,5.90
2019-06-15T04:46:38.686Z,6.30
2019-06-15T04:47:36.414Z,6.10
2019-06-15T04:48:36.395Z,6.30
2019-06-15T04:49:36.378Z,6.40
2019-06-15T04:50:36.357Z,6.20
2019-06-15T04:51:36.339Z,6.40
2019-06-15T04:52:36.319Z,6.70
2019-06-15T04:53:36.299Z,6.90
2019-06-15T04:54:36.285Z,7.10
2019-06-15T04:55:36.266Z,6.50
2019-06-15T04:56:50.026Z,5.90
2019-06-15T04:57:36.224Z,7.10
2019-06-15T04:58:36.204Z,6.20
2019-06-15T04:59:36.185Z,6.70
2019-06-15T05:00:36.166Z,6.50
2019-06-15T05:01:36.147Z,5.90
2019-06-15T05:02:36.127Z,6.20
2019-06-15T05:03:36.108Z,5.60
2019-06-15T05:04:36.090Z,6.00
2019-06-15T05:05:36.074Z,6.30
2019-06-15T05:06:36.052Z,5.90
2019-06-15T05:07:36.032Z,5.10
2019-06-15T05:08:36.014Z,5.60
2019-06-15T05:09:35.994Z,5.90
2019-06-15T05:10:35.974Z,5.20
2019-06-15T05:11:35.990Z,5.40
2019-06-15T05:12:35.940Z,5.50
2019-06-15T05:13:38.923Z,5.10
2019-06-15T05:14:35.899Z,5.50
2019-06-15T05:15:35.880Z,5.00
2019-06-15T05:16:35.861Z,5.40
2019-06-15T05:17:35.854Z,5.50
2019-06-15T05:18:35.823Z,5.30
2019-06-15T05:19:35.803Z,5.10
2019-06-15T05:20:35.786Z,5.40
2019-06-15T05:21:35.768Z,4.80
2019-06-15T05:22:35.751Z,5.40
2019-06-15T05:23:35.729Z,4.90
2019-06-15T05:24:35.710Z,4.60
2019-06-15T05:25:35.694Z,4.30
2019-06-15T05:26:35.672Z,4.50
2019-06-15T05:27:35.654Z,4.50
2019-06-15T05:28:35.634Z,4.30
2019-06-15T05:29:35.618Z,4.50
2019-06-15T05:30:35.596Z,4.10
2019-06-15T05:31:35.578Z,4.50
2019-06-15T05:32:35.563Z,4.60
2019-06-15T05:33:35.540Z,4.10
2019-06-15T05:34:35.521Z,4.00
2019-06-15T05:35:35.507Z,4.40
2019-06-15T05:36:35.486Z,4.50
2019-06-15T05:37:35.467Z,4.40
2019-06-15T05:38:35.447Z,4.10
2019-06-15T05:39:35.430Z,3.70
2019-06-15T05:40:35.412Z,4.20
2019-06-15T05:41:35.394Z,4.80
2019-06-15T05:42:35.375Z,4.10
2019-06-15T05:43:35.358Z,4.10
2019-06-15T05:44:35.340Z,3.60
2019-06-15T05:45:35.321Z,4.00
2019-06-15T05:46:35.302Z,3.80
2019-06-15T05:47:35.314Z,3.70
2019-06-15T05:48:35.267Z,3.30
2019-06-15T05:49:35.249Z,3.80
2019-06-15T05:50:35.233Z,3.90
2019-06-15T05:51:35.214Z,5.10
2019-06-15T05:52:35.197Z,4.00
2019-06-15T05:53:35.178Z,4.20
2019-06-15T05:54:35.161Z,3.60
2019-06-15T05:55:35.143Z,3.70
2019-06-15T05:56:35.125Z,4.00
2019-06-15T05:57:35.105Z,3.40
2019-06-15T05:58:35.088Z,3.30
2019-06-15T05:59:35.071Z,3.10
2019-06-15T06:00:35.054Z,3.00
2019-06-15T06:01:35.035Z,3.00
2019-06-15T06:02:35.017Z,3.30
2019-06-15T06:03:35.001Z,3.20
2019-06-15T06:04:34.987Z,2.70
2019-06-15T06:05:34.963Z,3.00
2019-06-15T06:06:34.970Z,2.50
2019-06-15T06:07:34.927Z,2.50
2019-06-15T06:08:34.910Z,2.30
2019-06-15T06:09:34.891Z,2.70
2019-06-15T06:10:34.874Z,2.10
2019-06-15T06:11:34.866Z,2.10
2019-06-15T06:12:34.837Z,2.20
2019-06-15T06:13:34.829Z,2.20
2019-06-15T06:14:34.802Z,2.40
2019-06-15T06:15:34.789Z,2.20
2019-06-15T06:16:34.768Z,2.00
2019-06-15T06:17:34.747Z,2.10
2019-06-15T06:18:34.734Z,2.10
2019-06-15T06:19:34.713Z,2.60
2019-06-15T06:20:34.696Z,2.20
2019-06-15T06:21:34.678Z,2.30
2019-06-15T06:22:34.687Z,2.80
2019-06-15T06:23:34.644Z,2.30
2019-06-15T06:24:34.632Z,2.50
2019-06-15T06:25:34.606Z,2.30
2019-06-15T06:26:34.600Z,2.50
2019-06-15T06:27:39.833Z,2.40
2019-06-15T06:28:34.559Z,2.40
2019-06-15T06:29:34.535Z,2.40
2019-06-15T06:30:34.520Z,2.50
2019-06-15T06:31:34.502Z,2.20
2019-06-15T06:32:34.483Z,2.50
2019-06-15T06:33:34.466Z,2.20
2019-06-15T06:34:34.447Z,1.90
2019-06-15T06:35:34.429Z,2.10
2019-06-15T06:36:34.413Z,2.70
2019-06-15T06:37:34.393Z,2.20
2019-06-15T06:38:34.377Z,2.60
2019-06-15T06:39:34.358Z,2.10
2019-06-15T06:40:34.341Z,2.30
2019-06-15T06:41:34.333Z,2.30
2019-06-15T06:42:34.305Z,2.10
2019-06-15T06:43:34.291Z,2.00
2019-06-15T06:44:34.278Z,2.00
2019-06-15T06:45:34.253Z,1.80
2019-06-15T06:46:34.245Z,2.10
2019-06-15T06:47:34.218Z,1.90
2019-06-15T06:48:34.202Z,2.20
2019-06-15T06:49:34.180Z,2.30
2019-06-15T06:50:34.164Z,2.00
2019-06-15T06:51:34.150Z,1.90
2019-06-15T06:52:34.127Z,2.00
2019-06-15T06:53:34.110Z,1.90
2019-06-15T06:54:34.092Z,1.70
2019-06-15T06:55:34.074Z,2.00
2019-06-15T06:56:34.061Z,1.90
2019-06-15T06:57:34.051Z,1.90
2019-06-15T06:58:34.021Z,1.90
2019-06-15T06:59:34.003Z,1.90
2019-06-15T07:00:33.986Z,1.80
2019-06-15T07:01:33.967Z,1.90
2019-06-15T07:02:33.949Z,1.90
2019-06-15T07:03:33.936Z,1.80
2019-06-15T07:04:33.943Z,1.70
2019-06-15T07:05:33.900Z,1.60
2019-06-15T07:06:33.876Z,1.60
2019-06-15T07:07:33.860Z,1.80
2019-06-15T07:08:33.843Z,2.00
2019-06-15T07:09:33.822Z,1.80
2019-06-15T07:10:33.804Z,1.90
2019-06-15T07:11:33.790Z,1.60
2019-06-15T07:12:33.819Z,1.40
2019-06-15T07:13:33.751Z,1.50
2019-06-15T07:14:33.733Z,1.70
2019-06-15T07:15:35.967Z,1.50
2019-06-15T07:16:33.747Z,1.70
2019-06-15T07:17:33.793Z,1.50
2019-06-15T07:18:33.660Z,1.40
2019-06-15T07:19:33.649Z,1.50
2019-06-15T07:20:33.625Z,1.60
2019-06-15T07:21:33.608Z,1.60
2019-06-15T07:22:33.590Z,1.70
2019-06-15T07:23:33.585Z,1.50
2019-06-15T07:24:33.553Z,1.50
2019-06-15T07:25:33.563Z,1.50
2019-06-15T07:26:33.541Z,1.50
2019-06-15T07:27:33.529Z,1.50
2019-06-15T07:28:33.492Z,1.50
2019-06-15T07:29:33.469Z,1.70
2019-06-15T07:30:33.464Z,1.50
2019-06-15T07:31:33.433Z,1.70
2019-06-15T07:32:33.632Z,1.50
2019-06-15T07:33:33.392Z,1.40
2019-06-15T07:34:33.374Z,1.70
2019-06-15T07:35:33.354Z,1.90
2019-06-15T07:36:33.337Z,1.80
2019-06-15T07:37:33.319Z,2.00
2019-06-15T07:38:33.301Z,2.00
2019-06-15T07:39:33.283Z,1.90
2019-06-15T07:40:33.266Z,1.80
2019-06-15T07:41:33.248Z,1.80
2019-06-15T07:42:33.233Z,1.90
2019-06-15T07:43:33.214Z,1.80
2019-06-15T07:44:33.197Z,1.80
2019-06-15T07:45:33.179Z,1.90
2019-06-15T07:46:33.158Z,2.00
2019-06-15T07:47:33.144Z,2.30
2019-06-15T07:48:33.226Z,2.30
2019-06-15T07:49:33.107Z,2.00
2019-06-15T07:50:33.091Z,2.00
2019-06-15T07:51:33.081Z,2.30
2019-06-15T07:52:33.065Z,2.40
2019-06-15T07:53:33.037Z,2.30
2019-06-15T07:54:36.050Z,1.90
2019-06-15T07:55:33.051Z,2.10
2019-06-15T07:56:32.987Z,1.70
2019-06-15T07:57:32.974Z,1.80
2019-06-15T07:58:32.952Z,1.90
2019-06-15T07:59:32.937Z,2.00
2019-06-15T08:00:32.919Z,2.20
2019-06-15T08:01:32.900Z,2.00
2019-06-15T08:02:32.883Z,2.00
2019-06-15T08:03:32.870Z,1.90
2019-06-15T08:04:32.851Z,2.00
2019-06-15T08:05:32.836Z,2.20
2019-06-15T08:06:32.868Z,1.90
2019-06-15T08:07:32.801Z,1.70
2019-06-15T08:08:32.786Z,1.80
2019-06-15T08:09:35.024Z,1.90
2019-06-15T08:10:32.751Z,2.00
2019-06-15T08:11:32.739Z,2.30
2019-06-15T08:12:32.717Z,1.80
2019-06-15T08:13:32.701Z,1.90
2019-06-15T08:14:32.687Z,1.80
2019-06-15T08:15:33.419Z,1.90
2019-06-15T08:16:32.653Z,1.90
2019-06-15T08:17:32.654Z,1.80
2019-06-15T08:18:32.619Z,1.90
2019-06-15T08:19:32.602Z,1.80
2019-06-15T08:20:32.586Z,1.90
2019-06-15T08:21:32.569Z,1.90
2019-06-15T08:22:32.552Z,2.10
2019-06-15T08:23:32.536Z,1.70
2019-06-15T08:24:32.520Z,1.70
2019-06-15T08:25:32.501Z,1.90
2019-06-15T08:26:32.486Z,1.70
2019-06-15T08:27:32.468Z,1.90
2019-06-15T08:28:40.272Z,1.80
2019-06-15T08:29:32.434Z,1.60
2019-06-15T08:30:32.417Z,1.60
2019-06-15T08:31:32.403Z,1.60
2019-06-15T08:32:32.384Z,1.90
2019-06-15T08:33:32.368Z,2.10
2019-06-15T08:34:32.394Z,1.80
2019-06-15T08:35:32.334Z,1.70
2019-06-15T08:36:32.319Z,1.80
2019-06-15T08:37:32.298Z,1.70
2019-06-15T08:38:32.284Z,1.60
2019-06-15T08:39:32.267Z,1.60
2019-06-15T08:40:32.250Z,1.90
2019-06-15T08:41:32.231Z,2.00
2019-06-15T08:42:32.215Z,1.50
2019-06-15T08:43:32.203Z,1.60
2019-06-15T08:44:32.182Z,1.60
2019-06-15T08:45:32.164Z,1.60
2019-06-15T08:46:32.147Z,1.80
2019-06-15T08:47:32.131Z,1.60
2019-06-15T08:48:32.114Z,1.60
2019-06-15T08:49:32.108Z,1.70
2019-06-15T08:50:32.081Z,1.60
2019-06-15T08:51:32.063Z,1.50
2019-06-15T08:52:32.047Z,1.60
2019-06-15T08:53:32.029Z,1.80
2019-06-15T08:54:32.013Z,1.70
2019-06-15T08:55:32.003Z,1.60
2019-06-15T08:56:31.979Z,1.90
2019-06-15T08:57:31.964Z,1.70
2019-06-15T08:58:31.946Z,1.70
2019-06-15T08:59:31.930Z,1.70
2019-06-15T09:00:31.924Z,1.50
2019-06-15T09:01:31.895Z,1.60
2019-06-15T09:02:31.888Z,1.70
2019-06-15T09:03:31.865Z,1.50
2019-06-15T09:04:31.850Z,1.60
2019-06-15T09:05:31.830Z,1.70
2019-06-15T09:06:31.813Z,1.70
2019-06-15T09:07:31.797Z,1.70
2019-06-15T09:08:31.784Z,1.50
2019-06-15T09:09:31.772Z,1.50
2019-06-15T09:10:31.749Z,1.60
2019-06-15T09:11:31.734Z,1.70
2019-06-15T09:12:31.719Z,1.50
2019-06-15T09:13:32.459Z,1.70
2019-06-15T09:14:31.685Z,1.80
2019-06-15T09:15:31.675Z,1.70
2019-06-15T09:16:31.657Z,1.60
2019-06-15T09:17:31.637Z,1.70
2019-06-15T09:18:31.630Z,1.50
2019-06-15T09:19:31.607Z,1.50
2019-06-15T09:20:31.591Z,1.50
2019-06-15T09:21:31.576Z,1.60
2019-06-15T09:22:31.560Z,1.50
2019-06-15T09:23:31.544Z,1.40
2019-06-15T09:24:31.529Z,1.60
2019-06-15T09:25:31.514Z,1.60
2019-06-15T09:26:31.497Z,1.60
2019-06-15T09:27:31.482Z,2.00
2019-06-15T09:28:31.466Z,1.50
2019-06-15T09:29:31.448Z,1.60
2019-06-15T09:30:31.434Z,1.80
2019-06-15T09:31:31.420Z,1.60
2019-06-15T09:32:31.404Z,1.50
2019-06-15T09:33:31.388Z,1.60
2019-06-15T09:34:31.375Z,2.20
2019-06-15T09:35:31.358Z,1.60
2019-06-15T09:36:31.342Z,1.50
2019-06-15T09:37:31.327Z,1.60
2019-06-15T09:38:31.310Z,1.50
2019-06-15T09:39:31.295Z,1.40
2019-06-15T09:40:31.280Z,1.40
2019-06-15T09:41:31.264Z,1.60
2019-06-15T09:42:31.345Z,1.60
2019-06-15T09:43:31.235Z,1.80
2019-06-15T09:44:31.221Z,1.50
2019-06-15T09:45:33.064Z,1.40
2019-06-15T09:46:31.187Z,1.60
2019-06-15T09:47:31.174Z,1.40
2019-06-15T09:48:31.159Z,1.70
2019-06-15T09:49:31.140Z,1.60
2019-06-15T09:50:31.129Z,1.80
2019-06-15T09:51:31.110Z,1.40
2019-06-15T09:52:31.095Z,1.60
2019-06-15T09:53:31.079Z,1.40
2019-06-15T09:54:31.063Z,1.60
2019-06-15T09:55:31.048Z,1.30
2019-06-15T09:56:31.031Z,1.30
2019-06-15T09:57:31.016Z,1.30
2019-06-15T09:58:31.001Z,1.50
2019-06-15T09:59:30.985Z,1.20
2019-06-15T10:00:30.970Z,1.30
2019-06-15T10:01:30.954Z,1.50
2019-06-15T10:02:30.940Z,1.40
2019-06-15T10:03:30.923Z,1.20
2019-06-15T10:04:30.907Z,1.30
2019-06-15T10:05:30.891Z,1.50
2019-06-15T10:06:30.876Z,1.30
2019-06-15T10:07:30.865Z,1.30
2019-06-15T10:08:30.846Z,1.30
2019-06-15T10:09:30.845Z,1.40
2019-06-15T10:10:30.814Z,1.40
2019-06-15T10:11:30.800Z,1.30
2019-06-15T10:12:30.782Z,1.50
2019-06-15T10:13:31.531Z,1.40
2019-06-15T10:14:30.750Z,1.50
2019-06-15T10:15:30.735Z,1.30
2019-06-15T10:16:30.719Z,1.30
2019-06-15T10:17:30.703Z,1.30
2019-06-15T10:18:30.687Z,1.50
2019-06-15T10:19:30.671Z,1.50
2019-06-15T10:20:30.662Z,1.30
2019-06-15T10:21:30.639Z,1.30
2019-06-15T10:22:30.625Z,1.30
2019-06-15T10:23:30.669Z,1.90
2019-06-15T10:24:30.593Z,1.40
2019-06-15T10:25:30.576Z,1.40
2019-06-15T10:26:30.562Z,1.50
2019-06-15T10:27:30.545Z,1.40
2019-06-15T10:28:30.532Z,1.30
2019-06-15T10:29:41.585Z,1.80
2019-06-15T10:30:30.498Z,1.80
2019-06-15T10:31:30.483Z,1.50
2019-06-15T10:32:30.466Z,1.40
2019-06-15T10:33:30.449Z,1.30
2019-06-15T10:34:30.453Z,1.40
2019-06-15T10:35:30.420Z,1.40
2019-06-15T10:36:30.406Z,1.40
2019-06-15T10:37:30.400Z,1.50
2019-06-15T10:38:30.374Z,1.60
2019-06-15T10:39:30.358Z,1.50
2019-06-15T10:40:30.342Z,1.50
2019-06-15T10:41:30.329Z,1.70
2019-06-15T10:42:30.310Z,1.50
2019-06-15T10:43:30.294Z,1.40
2019-06-15T10:44:30.278Z,1.50
2019-06-15T10:45:30.262Z,1.50
2019-06-15T10:46:30.268Z,1.50
2019-06-15T10:47:30.232Z,1.60
2019-06-15T10:48:30.216Z,1.50
2019-06-15T10:49:30.205Z,1.60
2019-06-15T10:50:30.185Z,1.60
2019-06-15T10:51:30.176Z,1.40
2019-06-15T10:52:30.155Z,1.40
2019-06-15T10:53:30.139Z,1.60
2019-06-15T10:54:30.123Z,1.60
2019-06-15T10:55:30.108Z,1.40
2019-06-15T10:56:30.095Z,1.50
2019-06-15T10:57:30.079Z,2.00
2019-06-15T10:58:30.064Z,1.70
2019-06-15T10:59:30.050Z,1.40
2019-06-15T11:00:30.033Z,1.70
2019-06-15T11:01:30.032Z,1.20
2019-06-15T11:02:30.008Z,1.30
2019-06-15T11:03:29.987Z,1.20
2019-06-15T11:04:29.972Z,1.30
2019-06-15T11:05:29.958Z,1.30
2019-06-15T11:06:29.940Z,1.30
2019-06-15T11:07:29.927Z,1.40
2019-06-15T11:08:29.912Z,1.70
2019-06-15T11:09:29.897Z,1.20
2019-06-15T11:10:29.880Z,1.30
2019-06-15T11:11:29.865Z,1.30
2019-06-15T11:12:42.720Z,1.40
2019-06-15T11:13:29.834Z,1.40
2019-06-15T11:14:29.827Z,1.40
2019-06-15T11:15:29.808Z,1.40
2019-06-15T11:16:31.289Z,1.30
2019-06-15T11:17:29.771Z,1.70
2019-06-15T11:18:29.756Z,1.40
2019-06-15T11:19:29.743Z,1.40
2019-06-15T11:20:29.728Z,1.40
2019-06-15T11:21:29.709Z,1.30
2019-06-15T11:22:29.698Z,1.30
2019-06-15T11:23:29.690Z,1.30
2019-06-15T11:24:29.662Z,1.50
2019-06-15T11:25:29.647Z,1.30
2019-06-15T11:26:29.632Z,1.50
2019-06-15T11:27:29.616Z,1.50
2019-06-15T11:28:29.606Z,1.50
2019-06-15T11:29:29.584Z,1.60
2019-06-15T11:30:29.568Z,1.50
2019-06-15T11:31:29.553Z,1.40
2019-06-15T11:32:29.536Z,1.30
2019-06-15T11:33:29.524Z,1.40
2019-06-15T11:34:29.506Z,1.40
2019-06-15T11:35:29.489Z,1.50
2019-06-15T11:36:29.472Z,1.40
2019-06-15T11:37:29.455Z,1.60
2019-06-15T11:38:30.191Z,1.60
2019-06-15T11:39:29.425Z,1.60
2019-06-15T11:40:29.408Z,1.40
2019-06-15T11:41:29.397Z,1.50
2019-06-15T11:42:29.375Z,1.40
2019-06-15T11:43:29.395Z,1.60
2019-06-15T11:44:29.345Z,1.60
2019-06-15T11:45:29.329Z,1.30
2019-06-15T11:46:29.311Z,1.80
2019-06-15T11:47:29.295Z,1.40
2019-06-15T11:48:29.280Z,1.40
2019-06-15T11:49:29.264Z,1.40
2019-06-15T11:50:29.247Z,1.50
2019-06-15T11:51:29.231Z,1.30
2019-06-15T11:52:29.215Z,1.40
2019-06-15T11:53:29.198Z,1.30
2019-06-15T11:54:29.184Z,1.50
2019-06-15T11:55:39.004Z,1.40
2019-06-15T11:56:29.162Z,1.50
2019-06-15T11:57:29.159Z,1.50
2019-06-15T11:58:29.117Z,1.30
2019-06-15T11:59:29.102Z,1.30
2019-06-15T12:00:31.461Z,1.60
2019-06-15T12:01:29.070Z,1.50
2019-06-15T12:02:29.055Z,1.30
2019-06-15T12:03:29.039Z,1.60
2019-06-15T12:04:29.023Z,1.40
2019-06-15T12:05:29.017Z,1.40
2019-06-15T12:06:28.990Z,1.30
2019-06-15T12:07:28.976Z,1.30
2019-06-15T12:08:28.960Z,1.30
2019-06-15T12:09:28.945Z,1.60
2019-06-15T12:10:28.938Z,1.50
2019-06-15T12:11:28.915Z,1.40
2019-06-15T12:12:28.901Z,1.60
2019-06-15T12:13:28.883Z,1.40
2019-06-15T12:14:28.866Z,1.30
2019-06-15T12:15:28.854Z,1.50
2019-06-15T12:16:28.845Z,1.40
2019-06-15T12:17:28.820Z,1.50
2019-06-15T12:18:28.804Z,1.30
2019-06-15T12:19:28.789Z,1.20
2019-06-15T12:20:28.774Z,1.40
2019-06-15T12:21:28.801Z,1.20
2019-06-15T12:22:28.742Z,1.40
2019-06-15T12:23:28.739Z,1.50
2019-06-15T12:24:28.712Z,1.40
2019-06-15T12:25:28.703Z,1.70
2019-06-15T12:26:28.680Z,1.40
2019-06-15T12:27:28.665Z,1.60
2019-06-15T12:28:28.650Z,1.40
2019-06-15T12:29:28.634Z,1.50
2019-06-15T12:30:28.622Z,1.40
2019-06-15T12:31:28.606Z,1.60
2019-06-15T12:32:31.627Z,1.40
2019-06-15T12:33:28.574Z,1.40
2019-06-15T12:34:28.557Z,1.40
2019-06-15T12:35:28.542Z,1.50
2019-06-15T12:36:28.533Z,1.30
2019-06-15T12:37:28.511Z,1.50
2019-06-15T12:38:28.495Z,1.40
2019-06-15T12:39:28.485Z,1.50
2019-06-15T12:40:28.465Z,1.60
2019-06-15T12:41:28.449Z,1.30
2019-06-15T12:42:28.434Z,1.30
2019-06-15T12:43:28.427Z,1.40
2019-06-15T12:44:28.408Z,1.30
2019-06-15T12:45:28.387Z,1.40
2019-06-15T12:46:28.372Z,1.20
2019-06-15T12:47:28.357Z,1.40
2019-06-15T12:48:28.342Z,1.50
2019-06-15T12:49:28.325Z,1.50
2019-06-15T12:50:28.312Z,1.40
2019-06-15T12:51:28.295Z,1.40
2019-06-15T12:52:28.281Z,1.30
2019-06-15T12:53:28.264Z,1.30
2019-06-15T12:54:28.247Z,1.30
2019-06-15T12:55:28.237Z,1.50
2019-06-15T12:56:28.220Z,1.40
2019-06-15T12:57:28.203Z,1.30
2019-06-15T12:58:28.189Z,1.40
2019-06-15T12:59:28.172Z,1.20
2019-06-15T13:00:28.163Z,1.30
2019-06-15T13:01:28.142Z,1.20
2019-06-15T13:02:28.126Z,1.40
2019-06-15T13:03:28.111Z,1.30
2019-06-15T13:04:28.095Z,1.40
2019-06-15T13:05:28.079Z,1.40
2019-06-15T13:06:28.065Z,1.50
2019-06-15T13:07:28.049Z,1.70
2019-06-15T13:08:28.040Z,1.50
2019-06-15T13:09:28.022Z,1.40
2019-06-15T13:10:28.004Z,1.60
2019-06-15T13:11:27.989Z,1.30
2019-06-15T13:12:27.975Z,1.40
2019-06-15T13:13:27.962Z,1.50
2019-06-15T13:14:27.944Z,1.30
2019-06-15T13:15:27.934Z,1.50
2019-06-15T13:16:39.136Z,1.50
2019-06-15T13:17:27.899Z,1.50